| time (UTC) | temp F | wind direction | speed MPH | gust MPH | rain 1hr in | rain 24hr in | rain mn in | humidity % | barometer mb |
| 20260505022518 | 50 | 18 | 2.0 | 12.0 | 0.00 | 0.02 | 0.00 | 67 | 1012.3 |
| 20260505021516 | 53 | 28 | 7.0 | 13.0 | 0.00 | 0.02 | 0.00 | 60 | 1011.9 |
| 20260505020517 | 53 | 149 | 0.0 | 2.0 | 0.00 | 0.02 | 0.00 | 56 | 1011.5 |
| 20260505015517 | 53 | 149 | 0.0 | 2.0 | 0.00 | 0.02 | 0.00 | 57 | 1011.7 |
| 20260505014517 | 54 | 148 | 1.0 | 2.0 | 0.00 | 0.02 | 0.00 | 57 | 1011.6 |
| 20260505013517 | 54 | 76 | 1.0 | 4.0 | 0.00 | 0.02 | 0.00 | 56 | 1011.3 |
| 20260505012516 | 54 | 101 | 2.0 | 4.0 | 0.00 | 0.02 | 0.00 | 54 | 1011.5 |
| 20260505011537 | 54 | 181 | 1.0 | 3.0 | 0.00 | 0.02 | 0.00 | 56 | 1011.4 |
| 20260505010517 | 54 | 186 | 1.0 | 5.0 | 0.00 | 0.02 | 0.00 | 56 | 1011.3 |
| 20260505005516 | 54 | 177 | 1.0 | 5.0 | 0.00 | 0.02 | 0.00 | 57 | 1011.2 |
| 20260505004517 | 54 | 203 | 5.0 | 12.0 | 0.00 | 0.02 | 0.00 | 55 | 1011.3 |
| 20260505003517 | 55 | 199 | 7.0 | 12.0 | 0.00 | 0.02 | 0.00 | 55 | 1011.2 |
| 20260505002517 | 57 | 193 | 8.0 | 16.0 | 0.00 | 0.02 | 0.00 | 47 | 1011.2 |
| 20260505001518 | 57 | 305 | 1.0 | 4.0 | 0.00 | 0.02 | 0.00 | 44 | 1011.4 |
| 20260505000516 | 57 | 338 | 2.0 | 5.0 | 0.00 | 0.02 | 0.00 | 46 | 1011.3 |
| 20260504235517 | 57 | 34 | 2.0 | 5.0 | 0.00 | 0.02 | 0.02 | 46 | 1011.1 |
| 20260504234515 | 57 | 15 | 3.0 | 6.0 | 0.00 | 0.02 | 0.02 | 45 | 1011.0 |
| 20260504233515 | 57 | 12 | 2.0 | 10.0 | 0.00 | 0.02 | 0.02 | 46 | 1010.8 |
| 20260504232515 | 57 | 19 | 5.0 | 12.0 | 0.00 | 0.02 | 0.02 | 45 | 1010.7 |
| 20260504231515 | 57 | 353 | 6.0 | 15.0 | 0.00 | 0.02 | 0.02 | 46 | 1010.7 |
| 20260504230515 | 57 | 21 | 8.0 | 16.0 | 0.00 | 0.02 | 0.02 | 45 | 1010.7 |
| 20260504225515 | 58 | 16 | 9.0 | 18.0 | 0.00 | 0.02 | 0.02 | 45 | 1010.7 |
| 20260504224555 | 59 | 10 | 7.0 | 15.0 | 0.00 | 0.02 | 0.02 | 42 | 1010.7 |
| 20260504223515 | 59 | 22 | 7.0 | 15.0 | 0.00 | 0.02 | 0.02 | 42 | 1010.7 |
| 20260504222515 | 58 | 20 | 9.0 | 18.0 | 0.00 | 0.02 | 0.02 | 42 | 1010.8 |
| 20260504221515 | 59 | 6 | 7.0 | 18.0 | 0.00 | 0.02 | 0.02 | 39 | 1010.7 |
| 20260504220515 | 60 | 25 | 11.0 | 21.0 | 0.00 | 0.02 | 0.02 | 36 | 1010.5 |
| 20260504215515 | 61 | 18 | 7.0 | 22.0 | 0.00 | 0.02 | 0.02 | 35 | 1010.3 |
| 20260504214515 | 64 | 29 | 6.0 | 15.0 | 0.00 | 0.02 | 0.02 | 29 | 1009.9 |
| 20260504213515 | 66 | 91 | 6.0 | 13.0 | 0.00 | 0.02 | 0.02 | 28 | 1009.3 |
| 20260504212515 | 67 | 152 | 3.0 | 8.0 | 0.00 | 0.02 | 0.02 | 29 | 1009.2 |
| 20260504211515 | 67 | 143 | 4.0 | 9.0 | 0.00 | 0.02 | 0.02 | 29 | 1009.2 |
| 20260504210515 | 66 | 174 | 5.0 | 11.0 | 0.00 | 0.02 | 0.02 | 30 | 1009.7 |
| 20260504205555 | 66 | 146 | 2.0 | 8.0 | 0.00 | 0.02 | 0.02 | 31 | 1009.8 |
| 20260504204535 | 65 | 98 | 3.0 | 7.0 | 0.00 | 0.02 | 0.02 | 31 | 1009.8 |
| 20260504203535 | 65 | 126 | 2.0 | 8.0 | 0.00 | 0.02 | 0.02 | 33 | 1010.1 |
| 20260504202515 | 64 | 131 | 4.0 | 9.0 | 0.00 | 0.02 | 0.02 | 34 | 1010.3 |
| 20260504201515 | 62 | 119 | 2.0 | 5.0 | 0.00 | 0.02 | 0.02 | 39 | 1010.6 |
| 20260504200515 | 61 | 9 | 2.0 | 12.0 | 0.01 | 0.02 | 0.02 | 37 | 1010.8 |
| 20260504195515 | 61 | 75 | 1.0 | 4.0 | 0.02 | 0.02 | 0.02 | 38 | 1011.0 |
| 20260504194515 | 61 | 350 | 1.0 | 4.0 | 0.02 | 0.02 | 0.02 | 37 | 1010.9 |
| 20260504193515 | 61 | 181 | 3.0 | 10.0 | 0.02 | 0.02 | 0.02 | 39 | 1010.5 |
| 20260504192515 | 61 | 172 | 5.0 | 15.0 | 0.02 | 0.02 | 0.02 | 41 | 1010.5 |
| 20260504191515 | 59 | 206 | 7.0 | 11.0 | 0.02 | 0.02 | 0.02 | 46 | 1010.7 |
| 20260504190515 | 62 | 307 | 4.0 | 9.0 | 0.01 | 0.01 | 0.01 | 36 | 1010.3 |
| 20260504185515 | 65 | 239 | 9.0 | 18.0 | 0.00 | 0.00 | 0.00 | 29 | 1010.0 |
| 20260504184515 | 67 | 167 | 2.0 | 6.0 | 0.00 | 0.00 | 0.00 | 25 | 1009.7 |
| 20260504183515 | 67 | 11 | 2.0 | 13.0 | 0.00 | 0.00 | 0.00 | 24 | 1009.5 |
| 20260504182515 | 68 | 0 | 5.0 | 11.0 | 0.00 | 0.00 | 0.00 | 23 | 1009.5 |
| 20260504181515 | 68 | 309 | 3.0 | 12.0 | 0.00 | 0.00 | 0.00 | 22 | 1009.4 |
| 20260504180515 | 69 | 340 | 4.0 | 9.0 | 0.00 | 0.00 | 0.00 | 23 | 1009.4 |
| 20260504175515 | 69 | 251 | 3.0 | 7.0 | 0.00 | 0.00 | 0.00 | 22 | 1009.5 |
| 20260504174516 | 70 | 240 | 2.0 | 9.0 | 0.00 | 0.00 | 0.00 | 22 | 1009.7 |
| 20260504173517 | 69 | 17 | 2.0 | 10.0 | 0.00 | 0.00 | 0.00 | 23 | 1009.8 |
| 20260504172517 | 68 | 226 | 5.0 | 14.0 | 0.00 | 0.00 | 0.00 | 22 | 1010.1 |
| 20260504171517 | 68 | 80 | 4.0 | 14.0 | 0.00 | 0.00 | 0.00 | 24 | 1010.2 |
| 20260504170537 | 66 | 265 | 2.0 | 11.0 | 0.00 | 0.00 | 0.00 | 25 | 1010.3 |
| 20260504150517 | 60 | 287 | 5.0 | 12.0 | 0.00 | 0.00 | 0.00 | 27 | 1011.7 |
| 20260504140515 | 55 | 271 | 9.0 | 17.0 | 0.00 | 0.00 | 0.00 | 29 | 1011.7 |
| 20260504130535 | 52 | 269 | 12.0 | 23.0 | 0.00 | 0.00 | 0.00 | 30 | 1011.1 |
| 20260504110537 | 52 | 252 | 13.0 | 20.0 | 0.00 | 0.00 | 0.00 | 31 | 1011.0 |
| 20260504100517 | 52 | 251 | 7.0 | 15.0 | 0.00 | 0.00 | 0.00 | 31 | 1011.4 |
| 20260504081517 | 53 | 277 | 6.0 | 14.0 | 0.00 | 0.00 | 0.00 | 32 | 1012.0 |
| 20260504080515 | 53 | 301 | 6.0 | 14.0 | 0.00 | 0.00 | 0.00 | 32 | 1012.3 |
| 20260504050535 | 59 | 255 | 5.0 | 13.0 | 0.00 | 0.00 | 0.00 | 29 | 1013.2 |
| 20260504045515 | 60 | 265 | 6.0 | 12.0 | 0.00 | 0.00 | 0.00 | 29 | 1013.3 |
| 20260504044515 | 60 | 259 | 6.0 | 16.0 | 0.00 | 0.00 | 0.00 | 28 | 1013.4 |
| 20260504043515 | 60 | 266 | 6.0 | 12.0 | 0.00 | 0.00 | 0.00 | 28 | 1013.3 |
| 20260504042535 | 61 | 261 | 6.0 | 10.0 | 0.00 | 0.00 | 0.00 | 28 | 1013.4 |
| 20260504041535 | 61 | 259 | 5.0 | 13.0 | 0.00 | 0.00 | 0.00 | 28 | 1013.5 |
| 20260504040515 | 61 | 245 | 7.0 | 12.0 | 0.00 | 0.00 | 0.00 | 27 | 1013.5 |
| 20260504035515 | 61 | 239 | 6.0 | 10.0 | 0.00 | 0.00 | 0.00 | 27 | 1013.6 |
| 20260504034535 | 62 | 253 | 8.0 | 13.0 | 0.00 | 0.00 | 0.00 | 27 | 1013.7 |
| 20260504033515 | 62 | 255 | 4.0 | 11.0 | 0.00 | 0.00 | 0.00 | 27 | 1013.7 |
| 20260504032515 | 62 | 238 | 3.0 | 7.0 | 0.00 | 0.00 | 0.00 | 27 | 1013.7 |
| 20260504031515 | 62 | 254 | 4.0 | 10.0 | 0.00 | 0.00 | 0.00 | 26 | 1013.7 |
| 20260504030535 | 63 | 232 | 5.0 | 13.0 | 0.00 | 0.00 | 0.00 | 26 | 1013.7 |
| 20260504025535 | 63 | 256 | 6.0 | 13.0 | 0.00 | 0.00 | 0.00 | 26 | 1013.6 |
| 20260504024515 | 63 | 215 | 3.0 | 6.0 | 0.00 | 0.00 | 0.00 | 26 | 1013.6 |
| 20260504023515 | 63 | 243 | 2.0 | 7.0 | 0.00 | 0.00 | 0.00 | 26 | 1013.5 |